sensor_id;sensor_type;location;lat;lon;timestamp;pressure;altitude;pressure_sealevel;temperature;humidity
16194;BME280;8204;53.582;10.080;2023-05-12T00:01:22;101456.50;;;16.76;100.00
16194;BME280;8204;53.582;10.080;2023-05-12T00:03:52;101459.34;;;16.75;100.00
16194;BME280;8204;53.582;10.080;2023-05-12T00:06:24;101449.56;;;16.75;100.00
16194;BME280;8204;53.582;10.080;2023-05-12T00:09:05;101460.97;;;16.76;100.00
16194;BME280;8204;53.582;10.080;2023-05-12T00:11:35;101457.31;;;16.77;100.00
16194;BME280;8204;53.582;10.080;2023-05-12T00:14:04;101458.31;;;16.76;100.00
16194;BME280;8204;53.582;10.080;2023-05-12T00:16:32;101459.34;;;16.75;100.00
16194;BME280;8204;53.582;10.080;2023-05-12T00:19:05;101455.66;;;16.76;100.00
16194;BME280;8204;53.582;10.080;2023-05-12T00:21:39;101451.56;;;16.73;100.00
16194;BME280;8204;53.582;10.080;2023-05-12T00:24:08;101456.25;;;16.71;100.00
16194;BME280;8204;53.582;10.080;2023-05-12T00:26:37;101449.94;;;16.72;100.00
16194;BME280;8204;53.582;10.080;2023-05-12T00:29:07;101452.75;;;16.71;100.00
16194;BME280;8204;53.582;10.080;2023-05-12T00:31:36;101446.00;;;16.68;100.00
16194;BME280;8204;53.582;10.080;2023-05-12T00:34:04;101453.13;;;16.68;100.00
16194;BME280;8204;53.582;10.080;2023-05-12T00:36:33;101452.47;;;16.66;100.00
16194;BME280;8204;53.582;10.080;2023-05-12T00:39:05;101447.38;;;16.64;100.00
16194;BME280;8204;53.582;10.080;2023-05-12T00:41:46;101448.38;;;16.63;100.00
16194;BME280;8204;53.582;10.080;2023-05-12T00:44:15;101452.00;;;16.62;100.00
16194;BME280;8204;53.582;10.080;2023-05-12T00:46:43;101453.66;;;16.63;100.00
16194;BME280;8204;53.582;10.080;2023-05-12T00:49:12;101449.19;;;16.64;100.00
16194;BME280;8204;53.582;10.080;2023-05-12T00:51:41;101453.13;;;16.68;100.00
16194;BME280;8204;53.582;10.080;2023-05-12T00:54:15;101454.78;;;16.69;100.00
16194;BME280;8204;53.582;10.080;2023-05-12T00:56:44;101462.34;;;16.72;100.00
16194;BME280;8204;53.582;10.080;2023-05-12T00:59:13;101465.63;;;16.74;100.00
16194;BME280;8204;53.582;10.080;2023-05-12T01:01:43;101468.63;;;16.71;100.00
16194;BME280;8204;53.582;10.080;2023-05-12T01:04:12;101466.44;;;16.74;100.00
16194;BME280;8204;53.582;10.080;2023-05-12T01:06:46;101469.94;;;16.75;100.00
16194;BME280;8204;53.582;10.080;2023-05-12T01:09:19;101462.63;;;16.77;100.00
16194;BME280;8204;53.582;10.080;2023-05-12T01:11:49;101471.00;;;16.80;100.00
16194;BME280;8204;53.582;10.080;2023-05-12T01:14:19;101469.22;;;16.81;100.00
16194;BME280;8204;53.582;10.080;2023-05-12T01:16:50;101471.47;;;16.83;100.00
16194;BME280;8204;53.582;10.080;2023-05-12T01:19:37;101472.47;;;16.82;100.00
16194;BME280;8204;53.582;10.080;2023-05-12T01:22:08;101476.44;;;16.86;100.00
16194;BME280;8204;53.582;10.080;2023-05-12T01:25:01;101478.22;;;16.86;100.00
16194;BME280;8204;53.582;10.080;2023-05-12T01:27:33;101478.69;;;16.89;100.00
16194;BME280;8204;53.582;10.080;2023-05-12T01:30:05;101481.34;;;16.89;100.00
16194;BME280;8204;53.582;10.080;2023-05-12T01:32:37;101487.28;;;16.91;100.00
16194;BME280;8204;53.582;10.080;2023-05-12T01:35:07;101478.06;;;16.87;100.00
16194;BME280;8204;53.582;10.080;2023-05-12T01:37:36;101479.34;;;16.91;100.00
16194;BME280;8204;53.582;10.080;2023-05-12T01:40:06;101489.41;;;16.96;100.00
16194;BME280;8204;53.582;10.080;2023-05-12T01:42:40;101491.84;;;16.97;100.00
16194;BME280;8204;53.582;10.080;2023-05-12T01:45:10;101491.22;;;16.95;100.00
16194;BME280;8204;53.582;10.080;2023-05-12T01:47:39;101493.50;;;16.98;100.00
16194;BME280;8204;53.582;10.080;2023-05-12T01:50:09;101495.16;;;16.99;100.00
16194;BME280;8204;53.582;10.080;2023-05-12T01:52:38;101497.41;;;17.02;100.00
16194;BME280;8204;53.582;10.080;2023-05-12T01:55:09;101494.16;;;17.00;100.00
16194;BME280;8204;53.582;10.080;2023-05-12T01:57:40;101507.66;;;17.05;100.00
16194;BME280;8204;53.582;10.080;2023-05-12T02:00:10;101508.31;;;17.07;100.00
16194;BME280;8204;53.582;10.080;2023-05-12T02:02:41;101503.38;;;17.04;100.00
16194;BME280;8204;53.582;10.080;2023-05-12T02:05:10;101503.38;;;17.04;100.00
16194;BME280;8204;53.582;10.080;2023-05-12T02:07:38;101503.38;;;17.04;100.00
16194;BME280;8204;53.582;10.080;2023-05-12T02:10:08;101509.50;;;17.05;100.00
16194;BME280;8204;53.582;10.080;2023-05-12T02:12:59;101505.81;;;17.06;100.00
16194;BME280;8204;53.582;10.080;2023-05-12T02:15:29;101514.41;;;17.08;100.00
16194;BME280;8204;53.582;10.080;2023-05-12T02:17:58;101518.25;;;17.05;100.00
16194;BME280;8204;53.582;10.080;2023-05-12T02:20:28;101512.78;;;17.07;100.00
16194;BME280;8204;53.582;10.080;2023-05-12T02:22:57;101519.25;;;17.04;100.00
16194;BME280;8204;53.582;10.080;2023-05-12T02:25:26;101523.81;;;17.10;100.00
16194;BME280;8204;53.582;10.080;2023-05-12T02:27:55;101517.72;;;17.10;100.00
16194;BME280;8204;53.582;10.080;2023-05-12T02:30:26;101515.69;;;17.12;100.00
16194;BME280;8204;53.582;10.080;2023-05-12T02:32:55;101511.41;;;17.11;100.00
16194;BME280;8204;53.582;10.080;2023-05-12T02:35:24;101519.00;;;17.14;100.00
16194;BME280;8204;53.582;10.080;2023-05-12T02:37:53;101515.34;;;17.15;100.00
16194;BME280;8204;53.582;10.080;2023-05-12T02:40:23;101520.28;;;17.18;100.00
16194;BME280;8204;53.582;10.080;2023-05-12T02:42:51;101517.81;;;17.16;100.00
16194;BME280;8204;53.582;10.080;2023-05-12T02:45:20;101516.81;;;17.17;100.00
16194;BME280;8204;53.582;10.080;2023-05-12T02:47:51;101515.81;;;17.18;100.00
16194;BME280;8204;53.582;10.080;2023-05-12T02:50:20;101521.75;;;17.20;100.00
16194;BME280;8204;53.582;10.080;2023-05-12T02:52:49;101515.59;;;17.20;100.00
16194;BME280;8204;53.582;10.080;2023-05-12T02:55:18;101517.44;;;17.19;100.00
16194;BME280;8204;53.582;10.080;2023-05-12T02:57:47;101516.59;;;17.19;100.00
16194;BME280;8204;53.582;10.080;2023-05-12T03:00:16;101526.75;;;17.15;100.00
16194;BME280;8204;53.582;10.080;2023-05-12T03:02:45;101527.59;;;17.16;100.00
16194;BME280;8204;53.582;10.080;2023-05-12T03:05:16;101526.41;;;17.18;100.00
16194;BME280;8204;53.582;10.080;2023-05-12T03:07:46;101528.59;;;17.15;100.00
16194;BME280;8204;53.582;10.080;2023-05-12T03:10:15;101528.59;;;17.15;100.00
16194;BME280;8204;53.582;10.080;2023-05-12T03:12:44;101524.94;;;17.16;100.00
16194;BME280;8204;53.582;10.080;2023-05-12T03:15:13;101524.75;;;17.17;100.00
16194;BME280;8204;53.582;10.080;2023-05-12T03:17:42;101529.59;;;17.14;100.00
16194;BME280;8204;53.582;10.080;2023-05-12T03:20:12;101527.13;;;17.12;100.00
16194;BME280;8204;53.582;10.080;2023-05-12T03:22:46;101530.78;;;17.11;100.00
16194;BME280;8204;53.582;10.080;2023-05-12T03:25:14;101530.97;;;17.10;100.00
16194;BME280;8204;53.582;10.080;2023-05-12T03:27:44;101537.25;;;17.09;100.00
16194;BME280;8204;53.582;10.080;2023-05-12T03:30:13;101532.78;;;17.09;100.00
16194;BME280;8204;53.582;10.080;2023-05-12T03:32:42;101537.06;;;17.10;100.00
16194;BME280;8204;53.582;10.080;2023-05-12T03:35:12;101533.63;;;17.10;100.00
16194;BME280;8204;53.582;10.080;2023-05-12T03:37:41;101537.72;;;17.12;100.00
16194;BME280;8204;53.582;10.080;2023-05-12T03:40:12;101536.06;;;17.11;100.00
16194;BME280;8204;53.582;10.080;2023-05-12T03:42:44;101536.41;;;17.08;100.00
16194;BME280;8204;53.582;10.080;2023-05-12T03:45:13;101527.13;;;17.12;100.00
16194;BME280;8204;53.582;10.080;2023-05-12T03:47:42;101538.06;;;17.09;100.00
16194;BME280;8204;53.582;10.080;2023-05-12T03:50:11;101533.78;;;17.08;100.00
16194;BME280;8204;53.582;10.080;2023-05-12T03:52:40;101537.06;;;17.10;100.00
16194;BME280;8204;53.582;10.080;2023-05-12T03:55:11;101533.63;;;17.10;100.00
16194;BME280;8204;53.582;10.080;2023-05-12T03:57:40;101548.66;;;17.09;100.00
16194;BME280;8204;53.582;10.080;2023-05-12T04:00:15;101545.41;;;17.07;100.00
16194;BME280;8204;53.582;10.080;2023-05-12T04:02:44;101538.44;;;17.06;100.00
16194;BME280;8204;53.582;10.080;2023-05-12T04:05:13;101545.00;;;17.10;100.00
16194;BME280;8204;53.582;10.080;2023-05-12T04:07:42;101547.00;;;17.08;100.00
16194;BME280;8204;53.582;10.080;2023-05-12T04:10:13;101549.03;;;17.06;100.00
16194;BME280;8204;53.582;10.080;2023-05-12T04:12:42;101545.75;;;17.04;100.00
16194;BME280;8204;53.582;10.080;2023-05-12T04:15:11;101548.84;;;17.08;100.00
16194;BME280;8204;53.582;10.080;2023-05-12T04:17:44;101547.66;;;17.10;100.00
16194;BME280;8204;53.582;10.080;2023-05-12T04:20:13;101548.66;;;17.09;100.00
16194;BME280;8204;53.582;10.080;2023-05-12T04:22:42;101549.66;;;17.08;100.00
16194;BME280;8204;53.582;10.080;2023-05-12T04:25:14;101549.50;;;17.10;100.00
16194;BME280;8204;53.582;10.080;2023-05-12T04:27:43;101559.25;;;17.09;100.00
16194;BME280;8204;53.582;10.080;2023-05-12T04:30:15;101572.97;;;17.13;100.00
16194;BME280;8204;53.582;10.080;2023-05-12T04:32:44;101578.09;;;17.14;100.00
16194;BME280;8204;53.582;10.080;2023-05-12T04:35:13;101574.88;;;17.19;100.00
16194;BME280;8204;53.582;10.080;2023-05-12T04:37:42;101573.06;;;17.19;100.00
16194;BME280;8204;53.582;10.080;2023-05-12T04:40:14;101573.06;;;17.19;100.00
16194;BME280;8204;53.582;10.080;2023-05-12T04:42:43;101577.38;;;17.20;100.00
16194;BME280;8204;53.582;10.080;2023-05-12T04:45:12;101578.66;;;17.24;100.00
16194;BME280;8204;53.582;10.080;2023-05-12T04:47:42;101577.00;;;17.23;100.00
16194;BME280;8204;53.582;10.080;2023-05-12T04:50:11;101576.66;;;17.26;100.00
16194;BME280;8204;53.582;10.080;2023-05-12T04:52:40;101585.25;;;17.28;100.00
16194;BME280;8204;53.582;10.080;2023-05-12T04:55:09;101583.91;;;17.32;100.00
16194;BME280;8204;53.582;10.080;2023-05-12T04:57:41;101594.69;;;17.31;100.00
16194;BME280;8204;53.582;10.080;2023-05-12T05:00:11;101586.16;;;17.35;100.00
16194;BME280;8204;53.582;10.080;2023-05-12T05:02:40;101599.06;;;17.38;100.00
16194;BME280;8204;53.582;10.080;2023-05-12T05:05:09;101595.41;;;17.39;100.00
16194;BME280;8204;53.582;10.080;2023-05-12T05:07:38;101605.03;;;17.40;100.00
16194;BME280;8204;53.582;10.080;2023-05-12T05:10:10;101609.94;;;17.43;100.00
16194;BME280;8204;53.582;10.080;2023-05-12T05:12:42;101606.28;;;17.44;100.00
16194;BME280;8204;53.582;10.080;2023-05-12T05:15:11;101613.25;;;17.45;100.00
16194;BME280;8204;53.582;10.080;2023-05-12T05:17:39;101615.34;;;17.50;100.00
16194;BME280;8204;53.582;10.080;2023-05-12T05:20:10;101621.91;;;17.54;100.00
16194;BME280;8204;53.582;10.080;2023-05-12T05:22:43;101610.97;;;17.57;100.00
16194;BME280;8204;53.582;10.080;2023-05-12T05:25:16;101618.53;;;17.59;100.00
16194;BME280;8204;53.582;10.080;2023-05-12T05:27:47;101620.00;;;17.62;100.00
16194;BME280;8204;53.582;10.080;2023-05-12T05:30:16;101625.94;;;17.64;100.00
16194;BME280;8204;53.582;10.080;2023-05-12T05:32:45;101627.88;;;17.70;100.00
16194;BME280;8204;53.582;10.080;2023-05-12T05:35:14;101625.88;;;17.72;100.00
16194;BME280;8204;53.582;10.080;2023-05-12T05:37:43;101639.38;;;17.77;100.00
16194;BME280;8204;53.582;10.080;2023-05-12T05:40:12;101633.72;;;17.80;100.00
16194;BME280;8204;53.582;10.080;2023-05-12T05:42:41;101647.63;;;17.82;100.00
16194;BME280;8204;53.582;10.080;2023-05-12T05:45:13;101643.22;;;17.89;100.00
16194;BME280;8204;53.582;10.080;2023-05-12T05:47:42;101646.13;;;17.94;100.00
16194;BME280;8204;53.582;10.080;2023-05-12T05:50:11;101644.78;;;17.98;100.00
16194;BME280;8204;53.582;10.080;2023-05-12T05:52:40;101646.03;;;18.02;100.00
16194;BME280;8204;53.582;10.080;2023-05-12T05:55:10;101653.66;;;18.05;100.00
16194;BME280;8204;53.582;10.080;2023-05-12T05:57:41;101651.91;;;18.12;100.00
16194;BME280;8204;53.582;10.080;2023-05-12T06:00:14;101649.50;;;18.17;100.00
16194;BME280;8204;53.582;10.080;2023-05-12T06:02:43;101651.44;;;18.23;100.00
16194;BME280;8204;53.582;10.080;2023-05-12T06:05:12;101648.25;;;18.27;100.00
16194;BME280;8204;53.582;10.080;2023-05-12T06:07:41;101658.94;;;18.33;100.00
16194;BME280;8204;53.582;10.080;2023-05-12T06:10:11;101663.69;;;18.38;100.00
16194;BME280;8204;53.582;10.080;2023-05-12T06:12:40;101663.13;;;18.42;100.00
16194;BME280;8204;53.582;10.080;2023-05-12T06:15:10;101674.19;;;18.46;100.00
16194;BME280;8204;53.582;10.080;2023-05-12T06:17:42;101675.44;;;18.50;100.00
16194;BME280;8204;53.582;10.080;2023-05-12T06:20:13;101670.59;;;18.53;100.00
16194;BME280;8204;53.582;10.080;2023-05-12T06:22:44;101678.00;;;18.58;100.00
16194;BME280;8204;53.582;10.080;2023-05-12T06:25:14;101678.25;;;18.63;100.00
16194;BME280;8204;53.582;10.080;2023-05-12T06:27:43;101687.69;;;18.65;100.00
16194;BME280;8204;53.582;10.080;2023-05-12T06:30:13;101685.09;;;18.72;100.00
16194;BME280;8204;53.582;10.080;2023-05-12T06:32:44;101679.25;;;18.76;100.00
16194;BME280;8204;53.582;10.080;2023-05-12T06:35:14;101682.59;;;18.85;100.00
16194;BME280;8204;53.582;10.080;2023-05-12T06:37:44;101689.00;;;18.90;100.00
16194;BME280;8204;53.582;10.080;2023-05-12T06:40:33;101689.88;;;18.97;100.00
16194;BME280;8204;53.582;10.080;2023-05-12T06:43:02;101688.28;;;19.02;100.00
16194;BME280;8204;53.582;10.080;2023-05-12T06:45:30;101692.69;;;19.10;100.00
16194;BME280;8204;53.582;10.080;2023-05-12T06:48:02;101693.94;;;19.14;100.00
16194;BME280;8204;53.582;10.080;2023-05-12T06:50:31;101697.47;;;19.21;100.00
16194;BME280;8204;53.582;10.080;2023-05-12T06:53:00;101694.06;;;19.27;100.00
16194;BME280;8204;53.582;10.080;2023-05-12T06:55:30;101696.59;;;19.35;100.00
16194;BME280;8204;53.582;10.080;2023-05-12T06:57:59;101698.25;;;19.36;100.00
16194;BME280;8204;53.582;10.080;2023-05-12T07:00:29;101700.13;;;19.42;100.00
16194;BME280;8204;53.582;10.080;2023-05-12T07:02:58;101695.63;;;19.42;100.00
16194;BME280;8204;53.582;10.080;2023-05-12T07:05:30;101699.34;;;19.48;100.00
16194;BME280;8204;53.582;10.080;2023-05-12T07:08:00;101696.56;;;19.56;100.00
16194;BME280;8204;53.582;10.080;2023-05-12T07:10:32;101700.06;;;19.63;100.00
16194;BME280;8204;53.582;10.080;2023-05-12T07:13:07;101700.31;;;19.68;100.00
16194;BME280;8204;53.582;10.080;2023-05-12T07:15:36;101705.88;;;19.73;100.00
16194;BME280;8204;53.582;10.080;2023-05-12T07:18:05;101705.25;;;19.71;100.00
16194;BME280;8204;53.582;10.080;2023-05-12T07:20:36;101709.78;;;19.77;100.00
16194;BME280;8204;53.582;10.080;2023-05-12T07:23:05;101709.00;;;19.82;100.00
16194;BME280;8204;53.582;10.080;2023-05-12T07:25:35;101715.19;;;19.89;100.00
16194;BME280;8204;53.582;10.080;2023-05-12T07:28:04;101716.28;;;19.95;100.00
16194;BME280;8204;53.582;10.080;2023-05-12T07:30:33;101719.00;;;20.01;100.00
16194;BME280;8204;53.582;10.080;2023-05-12T07:33:02;101722.50;;;20.08;100.00
16194;BME280;8204;53.582;10.080;2023-05-12T07:35:31;101713.75;;;20.14;100.00
16194;BME280;8204;53.582;10.080;2023-05-12T07:38:02;101719.09;;;20.21;100.00
16194;BME280;8204;53.582;10.080;2023-05-12T07:40:31;101719.31;;;20.26;100.00
16194;BME280;8204;53.582;10.080;2023-05-12T07:43:00;101723.25;;;20.36;100.00
16194;BME280;8204;53.582;10.080;2023-05-12T07:45:29;101721.88;;;20.40;100.00
16194;BME280;8204;53.582;10.080;2023-05-12T07:47:58;101723.31;;;20.49;100.00
16194;BME280;8204;53.582;10.080;2023-05-12T07:50:27;101729.50;;;20.56;100.00
16194;BME280;8204;53.582;10.080;2023-05-12T07:52:56;101731.34;;;20.62;100.00
16194;BME280;8204;53.582;10.080;2023-05-12T07:55:28;101730.75;;;20.66;100.00
16194;BME280;8204;53.582;10.080;2023-05-12T07:57:58;101737.97;;;20.72;100.00
16194;BME280;8204;53.582;10.080;2023-05-12T08:00:28;101737.59;;;20.82;100.00
16194;BME280;8204;53.582;10.080;2023-05-12T08:02:57;101735.78;;;20.89;100.00
16194;BME280;8204;53.582;10.080;2023-05-12T08:05:26;101735.59;;;20.97;100.00
16194;BME280;8204;53.582;10.080;2023-05-12T08:07:54;101732.56;;;21.06;100.00
16194;BME280;8204;53.582;10.080;2023-05-12T08:10:23;101736.25;;;21.12;100.00
16194;BME280;8204;53.582;10.080;2023-05-12T08:13:15;101736.66;;;21.22;100.00
16194;BME280;8204;53.582;10.080;2023-05-12T08:15:44;101732.38;;;21.27;100.00
16194;BME280;8204;53.582;10.080;2023-05-12T08:18:13;101731.13;;;21.36;100.00
16194;BME280;8204;53.582;10.080;2023-05-12T08:20:42;101735.06;;;21.40;100.00
16194;BME280;8204;53.582;10.080;2023-05-12T08:23:11;101737.53;;;21.48;100.00
16194;BME280;8204;53.582;10.080;2023-05-12T08:25:41;101732.84;;;21.56;100.00
16194;BME280;8204;53.582;10.080;2023-05-12T08:28:10;101739.19;;;21.62;100.00
16194;BME280;8204;53.582;10.080;2023-05-12T08:30:42;101739.19;;;21.68;100.00
16194;BME280;8204;53.582;10.080;2023-05-12T08:33:10;101739.56;;;21.78;100.00
16194;BME280;8204;53.582;10.080;2023-05-12T08:35:39;101736.47;;;21.88;100.00
16194;BME280;8204;53.582;10.080;2023-05-12T08:38:09;101735.47;;;21.89;100.00
16194;BME280;8204;53.582;10.080;2023-05-12T08:41:05;101740.38;;;21.98;100.00
16194;BME280;8204;53.582;10.080;2023-05-12T08:43:38;101733.19;;;21.99;100.00
16194;BME280;8204;53.582;10.080;2023-05-12T08:46:24;101739.97;;;22.01;100.00
16194;BME280;8204;53.582;10.080;2023-05-12T08:48:54;101734.41;;;22.02;100.00
16194;BME280;8204;53.582;10.080;2023-05-12T08:51:24;101735.44;;;22.08;100.00
16194;BME280;8204;53.582;10.080;2023-05-12T08:53:58;101731.94;;;22.14;100.00
16194;BME280;8204;53.582;10.080;2023-05-12T08:56:28;101735.00;;;22.17;100.00
16194;BME280;8204;53.582;10.080;2023-05-12T08:58:58;101729.44;;;22.19;100.00
16194;BME280;8204;53.582;10.080;2023-05-12T09:01:33;101728.59;;;22.25;100.00
16194;BME280;8204;53.582;10.080;2023-05-12T09:04:03;101730.88;;;22.28;100.00
16194;BME280;8204;53.582;10.080;2023-05-12T09:06:32;101725.97;;;22.31;100.00
16194;BME280;8204;53.582;10.080;2023-05-12T09:09:02;101727.16;;;22.35;100.00
16194;BME280;8204;53.582;10.080;2023-05-12T09:11:32;101731.25;;;22.38;96.83
16194;BME280;8204;53.582;10.080;2023-05-12T09:14:03;101734.53;;;22.40;90.62
16194;BME280;8204;53.582;10.080;2023-05-12T09:16:38;101731.88;;;22.40;89.19
16194;BME280;8204;53.582;10.080;2023-05-12T09:19:09;101728.00;;;22.36;87.87
16194;BME280;8204;53.582;10.080;2023-05-12T09:21:38;101731.47;;;22.43;89.50
16194;BME280;8204;53.582;10.080;2023-05-12T09:24:07;101727.50;;;22.52;93.97
16194;BME280;8204;53.582;10.080;2023-05-12T09:26:44;101736.31;;;22.59;94.05
16194;BME280;8204;53.582;10.080;2023-05-12T09:29:13;101736.50;;;22.64;89.18
16194;BME280;8204;53.582;10.080;2023-05-12T09:32:00;101735.22;;;22.73;93.45
16194;BME280;8204;53.582;10.080;2023-05-12T09:34:30;101729.88;;;22.73;89.40
16194;BME280;8204;53.582;10.080;2023-05-12T09:37:02;101732.13;;;22.76;89.99
16194;BME280;8204;53.582;10.080;2023-05-12T09:39:32;101737.66;;;22.80;88.75
16194;BME280;8204;53.582;10.080;2023-05-12T09:42:01;101734.53;;;22.83;88.14
16194;BME280;8204;53.582;10.080;2023-05-12T09:44:30;101731.69;;;22.85;88.79
16194;BME280;8204;53.582;10.080;2023-05-12T09:47:07;101736.34;;;22.89;90.13
16194;BME280;8204;53.582;10.080;2023-05-12T09:50:00;101734.69;;;22.95;87.72
16194;BME280;8204;53.582;10.080;2023-05-12T09:52:30;101730.34;;;23.00;86.36
16194;BME280;8204;53.582;10.080;2023-05-12T09:55:05;101728.03;;;23.10;91.15
16194;BME280;8204;53.582;10.080;2023-05-12T09:57:54;101721.81;;;23.16;86.95
16194;BME280;8204;53.582;10.080;2023-05-12T10:00:24;101731.47;;;23.24;89.63
16194;BME280;8204;53.582;10.080;2023-05-12T10:02:57;101727.69;;;23.31;89.43
16194;BME280;8204;53.582;10.080;2023-05-12T10:05:26;101728.06;;;23.35;89.12
16194;BME280;8204;53.582;10.080;2023-05-12T10:07:57;101726.59;;;23.39;90.04
16194;BME280;8204;53.582;10.080;2023-05-12T10:10:27;101727.59;;;23.44;86.23
16194;BME280;8204;53.582;10.080;2023-05-12T10:12:56;101728.59;;;23.50;88.37
16194;BME280;8204;53.582;10.080;2023-05-12T10:15:26;101728.50;;;23.56;89.11
16194;BME280;8204;53.582;10.080;2023-05-12T10:17:58;101720.22;;;23.64;87.52
16194;BME280;8204;53.582;10.080;2023-05-12T10:20:27;101728.41;;;23.69;84.01
16194;BME280;8204;53.582;10.080;2023-05-12T10:22:56;101727.97;;;23.72;84.83
16194;BME280;8204;53.582;10.080;2023-05-12T10:25:27;101730.03;;;23.70;84.58
16194;BME280;8204;53.582;10.080;2023-05-12T10:27:57;101725.09;;;23.67;82.97
16194;BME280;8204;53.582;10.080;2023-05-12T10:30:49;101728.25;;;23.64;80.42
16194;BME280;8204;53.582;10.080;2023-05-12T10:33:23;101727.59;;;23.68;80.56
16194;BME280;8204;53.582;10.080;2023-05-12T10:35:52;101726.31;;;23.71;80.46
16194;BME280;8204;53.582;10.080;2023-05-12T10:38:23;101726.97;;;23.73;76.12
16194;BME280;8204;53.582;10.080;2023-05-12T10:40:53;101727.28;;;23.83;75.47
16194;BME280;8204;53.582;10.080;2023-05-12T10:43:24;101722.00;;;23.94;76.32
16194;BME280;8204;53.582;10.080;2023-05-12T10:46:24;101722.16;;;23.99;73.92
16194;BME280;8204;53.582;10.080;2023-05-12T10:48:58;101721.88;;;24.07;71.88
16194;BME280;8204;53.582;10.080;2023-05-12T10:51:30;101724.63;;;24.19;71.72
16194;BME280;8204;53.582;10.080;2023-05-12T10:54:01;101724.03;;;24.17;70.28
16194;BME280;8204;53.582;10.080;2023-05-12T10:56:50;101717.63;;;24.18;69.00
16194;BME280;8204;53.582;10.080;2023-05-12T10:59:21;101729.75;;;24.20;70.17
16194;BME280;8204;53.582;10.080;2023-05-12T11:02:11;101730.78;;;24.37;69.84
16194;BME280;8204;53.582;10.080;2023-05-12T11:04:46;101734.31;;;24.37;68.30
16194;BME280;8204;53.582;10.080;2023-05-12T11:07:34;101732.66;;;24.36;68.30
16194;BME280;8204;53.582;10.080;2023-05-12T11:10:04;101732.66;;;24.36;70.47
16194;BME280;8204;53.582;10.080;2023-05-12T11:12:33;101725.53;;;24.48;77.90
16194;BME280;8204;53.582;10.080;2023-05-12T11:15:04;101729.09;;;24.60;77.77
16194;BME280;8204;53.582;10.080;2023-05-12T11:17:37;101724.84;;;24.71;87.54
16194;BME280;8204;53.582;10.080;2023-05-12T11:20:32;101722.34;;;24.87;79.72
16194;BME280;8204;53.582;10.080;2023-05-12T11:23:01;101726.09;;;24.98;76.89
16194;BME280;8204;53.582;10.080;2023-05-12T11:25:31;101708.81;;;25.11;75.03
16194;BME280;8204;53.582;10.080;2023-05-12T11:28:00;101719.94;;;25.26;74.33
16194;BME280;8204;53.582;10.080;2023-05-12T11:30:33;101726.25;;;25.43;75.34
16194;BME280;8204;53.582;10.080;2023-05-12T11:33:02;101730.13;;;25.59;73.41
16194;BME280;8204;53.582;10.080;2023-05-12T11:35:33;101723.00;;;25.76;75.78
16194;BME280;8204;53.582;10.080;2023-05-12T11:38:22;101720.69;;;25.90;74.25
16194;BME280;8204;53.582;10.080;2023-05-12T11:40:53;101730.13;;;25.93;72.57
16194;BME280;8204;53.582;10.080;2023-05-12T11:43:29;101729.69;;;25.96;72.17
16194;BME280;8204;53.582;10.080;2023-05-12T11:45:58;101735.50;;;26.04;73.19
16194;BME280;8204;53.582;10.080;2023-05-12T11:48:42;101737.00;;;26.23;72.04
16194;BME280;8204;53.582;10.080;2023-05-12T11:51:13;101725.09;;;26.31;65.67
16194;BME280;8204;53.582;10.080;2023-05-12T11:53:42;101732.19;;;26.48;70.73
16194;BME280;8204;53.582;10.080;2023-05-12T11:56:26;101743.34;;;26.68;70.79
16194;BME280;8204;53.582;10.080;2023-05-12T11:58:56;101733.47;;;26.85;68.86
16194;BME280;8204;53.582;10.080;2023-05-12T12:01:25;101734.34;;;27.02;67.08
16194;BME280;8204;53.582;10.080;2023-05-12T12:03:54;101736.91;;;27.08;66.02
16194;BME280;8204;53.582;10.080;2023-05-12T12:06:26;101733.66;;;27.23;64.60
16194;BME280;8204;53.582;10.080;2023-05-12T12:08:55;101734.47;;;27.39;63.32
16194;BME280;8204;53.582;10.080;2023-05-12T12:11:25;101729.34;;;27.54;61.54
16194;BME280;8204;53.582;10.080;2023-05-12T12:13:56;101729.03;;;27.67;62.96
16194;BME280;8204;53.582;10.080;2023-05-12T12:16:27;101724.84;;;27.93;62.34
16194;BME280;8204;53.582;10.080;2023-05-12T12:18:56;101728.75;;;27.85;61.03
16194;BME280;8204;53.582;10.080;2023-05-12T12:21:28;101725.72;;;27.98;58.72
16194;BME280;8204;53.582;10.080;2023-05-12T12:23:57;101719.63;;;28.24;59.98
16194;BME280;8204;53.582;10.080;2023-05-12T12:26:26;101726.59;;;28.41;60.47
16194;BME280;8204;53.582;10.080;2023-05-12T12:28:54;101707.69;;;28.63;63.35
16194;BME280;8204;53.582;10.080;2023-05-12T12:31:23;101736.63;;;28.46;59.58
16194;BME280;8204;53.582;10.080;2023-05-12T12:33:52;101735.63;;;28.30;58.57
16194;BME280;8204;53.582;10.080;2023-05-12T12:36:21;101732.94;;;28.14;56.67
16194;BME280;8204;53.582;10.080;2023-05-12T12:38:52;101723.16;;;28.24;56.14
16194;BME280;8204;53.582;10.080;2023-05-12T12:41:21;101730.09;;;28.04;57.68
16194;BME280;8204;53.582;10.080;2023-05-12T12:43:50;101723.22;;;28.13;59.35
16194;BME280;8204;53.582;10.080;2023-05-12T12:46:19;101731.88;;;28.15;59.73
16194;BME280;8204;53.582;10.080;2023-05-12T12:48:48;101720.88;;;28.38;59.97
16194;BME280;8204;53.582;10.080;2023-05-12T12:51:17;101718.72;;;28.61;58.71
16194;BME280;8204;53.582;10.080;2023-05-12T12:53:46;101716.69;;;28.73;56.29
16194;BME280;8204;53.582;10.080;2023-05-12T12:56:17;101719.94;;;28.96;56.21
16194;BME280;8204;53.582;10.080;2023-05-12T12:58:46;101718.00;;;29.18;57.19
16194;BME280;8204;53.582;10.080;2023-05-12T13:01:16;101730.81;;;29.33;56.19
16194;BME280;8204;53.582;10.080;2023-05-12T13:03:45;101718.56;;;29.52;56.96